Time;durP1;ratioP1;P1;durP2;ratioP2;P2;SDS_P1;SDS_P2;PMS_P1;PMS_P2;Temp;Humidity;BMP_temperature;BMP_pressure;BME280_temperature;BME280_humidity;BME280_pressure;Samples;Min_cycle;Max_cycle;Signal;HPM_P1;HPM_P2
2023/10/30 00:02:22;;;;;;;2.22;1.05;;;10.60;99.90;;;;;;4990533;28;20026;-82
2023/10/30 00:04:48;;;;;;;2.30;1.15;;;10.60;99.90;;;;;;4989995;28;20032;-82
2023/10/30 00:07:14;;;;;;;1.20;0.90;;;10.60;99.90;;;;;;4990090;28;20037;-82
2023/10/30 00:09:39;;;;;;;2.58;1.05;;;10.60;99.90;;;;;;4991108;28;20037;-83
2023/10/30 00:12:05;;;;;;;2.50;0.85;;;10.60;99.90;;;;;;4988211;28;20623;-83
2023/10/30 00:14:31;;;;;;;3.22;0.80;;;10.60;99.90;;;;;;4985410;28;20406;-81
2023/10/30 00:16:59;;;;;;;1.95;0.80;;;10.60;99.90;;;;;;4991099;28;20030;-83
2023/10/30 00:19:25;;;;;;;2.63;0.73;;;10.60;99.90;;;;;;4988785;28;20034;-83
2023/10/30 00:21:51;;;;;;;0.77;0.77;;;10.60;99.90;;;;;;4994526;28;20035;-82
2023/10/30 00:24:16;;;;;;;1.83;0.65;;;10.60;99.90;;;;;;4988878;28;20026;-84
2023/10/30 00:26:43;;;;;;;2.47;0.70;;;10.70;99.90;;;;;;4991161;28;20556;-84
2023/10/30 00:29:09;;;;;;;5.57;1.00;;;10.70;99.90;;;;;;4989599;28;20034;-83
2023/10/30 00:31:36;;;;;;;4.05;0.68;;;10.70;99.90;;;;;;4992939;28;20080;-84
2023/10/30 00:34:02;;;;;;;3.13;0.68;;;10.70;99.90;;;;;;4993093;28;20088;-83
2023/10/30 00:36:28;;;;;;;2.65;0.60;;;10.70;99.90;;;;;;4995259;28;20049;-84
2023/10/30 00:38:53;;;;;;;1.50;0.65;;;10.70;99.90;;;;;;4991317;28;20027;-83
2023/10/30 00:41:19;;;;;;;3.00;0.85;;;10.70;99.90;;;;;;4986333;28;20340;-83
2023/10/30 00:43:44;;;;;;;5.13;1.10;;;10.70;99.90;;;;;;4990449;28;20075;-84
2023/10/30 00:46:10;;;;;;;3.65;0.65;;;10.70;99.90;;;;;;4993566;28;20097;-84
2023/10/30 00:48:35;;;;;;;1.88;0.70;;;10.70;99.90;;;;;;4991801;28;20369;-83
2023/10/30 00:51:01;;;;;;;2.20;0.85;;;10.70;99.90;;;;;;4987411;28;20061;-83
2023/10/30 00:53:26;;;;;;;1.20;0.50;;;10.70;99.90;;;;;;4988049;28;20758;-84
2023/10/30 00:55:52;;;;;;;4.28;1.38;;;10.80;99.90;;;;;;4986021;28;20030;-85
2023/10/30 00:58:18;;;;;;;2.45;1.05;;;10.70;99.90;;;;;;4986653;28;20030;-84
2023/10/30 01:00:44;;;;;;;1.73;1.10;;;10.80;99.90;;;;;;4985585;28;20058;-83
2023/10/30 01:03:09;;;;;;;2.33;0.70;;;10.80;99.90;;;;;;4983296;28;20216;-82
2023/10/30 01:05:35;;;;;;;3.33;0.93;;;10.80;99.90;;;;;;4985158;28;20074;-83
2023/10/30 01:08:01;;;;;;;4.63;1.10;;;10.80;99.90;;;;;;4991291;28;20124;-83
2023/10/30 01:10:26;;;;;;;4.75;0.75;;;10.80;99.90;;;;;;4995007;28;20430;-84
2023/10/30 01:12:52;;;;;;;1.73;0.85;;;10.80;99.90;;;;;;4989577;28;20026;-83
2023/10/30 01:15:18;;;;;;;1.83;0.85;;;10.80;99.90;;;;;;4985997;28;20030;-84
2023/10/30 01:17:43;;;;;;;3.08;0.88;;;10.80;99.90;;;;;;4986790;28;20014;-83
2023/10/30 01:20:09;;;;;;;2.20;0.85;;;10.80;99.90;;;;;;4987209;28;20014;-83
2023/10/30 01:22:35;;;;;;;1.90;0.80;;;10.80;99.90;;;;;;4988886;28;20022;-83
2023/10/30 01:25:00;;;;;;;2.78;0.73;;;10.90;99.90;;;;;;4984156;28;20109;-83
2023/10/30 01:27:26;;;;;;;1.48;0.70;;;10.90;99.90;;;;;;4992091;28;20026;-84
2023/10/30 01:29:51;;;;;;;5.57;1.38;;;10.90;99.90;;;;;;4988128;28;20018;-84
2023/10/30 01:32:17;;;;;;;3.83;0.85;;;10.90;99.90;;;;;;4986790;28;20077;-83
2023/10/30 01:34:44;;;;;;;1.02;0.65;;;10.80;99.90;;;;;;4986616;28;20520;-83
2023/10/30 01:37:10;;;;;;;0.95;0.60;;;10.80;99.90;;;;;;4985883;28;21505;-82
2023/10/30 01:39:37;;;;;;;2.80;0.85;;;10.80;99.90;;;;;;4985445;28;20022;-82
2023/10/30 01:42:03;;;;;;;0.93;0.70;;;10.80;99.90;;;;;;4982172;28;20260;-83
2023/10/30 01:44:28;;;;;;;4.00;1.02;;;10.80;99.90;;;;;;4997815;28;20025;-83
2023/10/30 01:46:54;;;;;;;3.10;0.88;;;10.70;99.90;;;;;;4989740;28;20434;-83
2023/10/30 01:49:19;;;;;;;0.73;0.68;;;10.70;99.90;;;;;;4987453;28;20036;-83
2023/10/30 01:51:46;;;;;;;0.93;0.60;;;10.70;99.90;;;;;;4989413;28;20034;-82
2023/10/30 01:54:12;;;;;;;1.77;0.60;;;10.70;99.90;;;;;;4994081;28;20025;-84
2023/10/30 01:56:39;;;;;;;2.17;0.85;;;10.60;99.90;;;;;;5008585;28;20050;-82
2023/10/30 01:59:05;;;;;;;3.72;0.98;;;10.60;99.90;;;;;;4995055;28;20022;-82
2023/10/30 02:01:32;;;;;;;2.05;0.55;;;10.60;99.90;;;;;;4991953;28;20037;-82
2023/10/30 02:03:58;;;;;;;1.05;0.50;;;10.50;99.90;;;;;;4987722;28;20021;-82
2023/10/30 02:06:23;;;;;;;1.85;0.93;;;10.50;99.90;;;;;;4986907;28;20105;-82
2023/10/30 02:08:49;;;;;;;1.70;0.70;;;10.50;99.90;;;;;;4990103;28;20031;-82
2023/10/30 02:11:15;;;;;;;3.80;0.77;;;10.40;99.90;;;;;;4989461;28;20026;-84
2023/10/30 02:13:40;;;;;;;2.30;0.65;;;10.40;99.90;;;;;;4996715;28;20381;-84
2023/10/30 02:16:06;;;;;;;1.83;0.40;;;10.40;99.90;;;;;;4993242;28;20022;-83
2023/10/30 02:18:31;;;;;;;2.53;0.85;;;10.40;99.90;;;;;;4994311;28;20122;-82
2023/10/30 02:20:58;;;;;;;1.80;0.95;;;10.30;99.90;;;;;;4992578;28;20114;-83
2023/10/30 02:23:23;;;;;;;3.65;0.77;;;10.40;99.90;;;;;;4998297;28;20019;-83
2023/10/30 02:25:49;;;;;;;3.53;1.02;;;10.30;99.90;;;;;;4999383;28;20023;-85
2023/10/30 02:28:16;;;;;;;2.60;0.70;;;10.30;99.90;;;;;;4999232;28;20053;-82
2023/10/30 02:30:41;;;;;;;2.33;0.85;;;10.30;99.90;;;;;;4994163;28;20084;-83
2023/10/30 02:33:07;;;;;;;4.93;0.60;;;10.30;99.90;;;;;;4994402;28;20381;-82
2023/10/30 02:35:33;;;;;;;3.33;0.80;;;10.40;99.90;;;;;;4995171;28;20038;-86
2023/10/30 02:37:58;;;;;;;0.68;0.55;;;10.30;99.90;;;;;;4994940;28;20026;-84
2023/10/30 02:40:24;;;;;;;1.13;0.68;;;10.40;99.90;;;;;;4991807;28;20116;-83
2023/10/30 02:42:50;;;;;;;4.30;0.90;;;10.30;99.90;;;;;;4992103;28;20105;-83
2023/10/30 02:45:15;;;;;;;1.25;0.90;;;10.30;99.90;;;;;;4992223;28;20079;-82
2023/10/30 02:47:41;;;;;;;1.58;0.85;;;10.30;99.90;;;;;;4994217;28;20029;-82
2023/10/30 02:50:07;;;;;;;5.20;0.60;;;10.30;99.90;;;;;;4989865;28;20010;-82
2023/10/30 02:52:32;;;;;;;3.67;0.80;;;10.20;99.90;;;;;;4993775;28;20034;-83
2023/10/30 02:54:58;;;;;;;4.07;1.08;;;10.30;99.90;;;;;;4991171;28;20482;-83
2023/10/30 02:57:23;;;;;;;2.15;0.82;;;10.30;99.90;;;;;;4992625;28;20498;-83
2023/10/30 02:59:49;;;;;;;1.27;0.65;;;10.30;99.90;;;;;;4993716;28;20526;-82
2023/10/30 03:02:15;;;;;;;3.78;1.00;;;10.30;99.90;;;;;;4991355;28;20026;-81
2023/10/30 03:04:40;;;;;;;6.65;1.30;;;10.20;99.90;;;;;;4988178;28;20085;-83
2023/10/30 03:07:05;;;;;;;3.75;0.90;;;10.20;99.90;;;;;;4993165;28;20058;-82
2023/10/30 03:09:37;;;;;;;7.22;0.98;;;10.20;99.90;;;;;;4988801;28;20211;-86
2023/10/30 03:12:03;;;;;;;2.00;0.73;;;10.20;99.90;;;;;;4993571;28;20037;-81
2023/10/30 03:14:29;;;;;;;3.53;0.80;;;10.20;99.90;;;;;;4992377;28;20022;-84
2023/10/30 03:16:54;;;;;;;1.95;1.20;;;10.20;99.90;;;;;;4990101;28;20507;-82
2023/10/30 03:19:20;;;;;;;2.90;1.00;;;10.20;99.90;;;;;;4992901;28;20039;-82
2023/10/30 03:21:45;;;;;;;3.85;1.15;;;10.20;99.90;;;;;;4996185;28;20049;-83
2023/10/30 03:24:11;;;;;;;8.07;1.05;;;10.20;99.90;;;;;;4998460;28;20014;-83
2023/10/30 03:26:36;;;;;;;4.93;0.77;;;10.20;99.90;;;;;;4998452;28;20019;-82
2023/10/30 03:29:02;;;;;;;2.95;1.25;;;10.20;99.90;;;;;;4992979;28;20358;-83
2023/10/30 03:31:28;;;;;;;6.20;1.50;;;10.20;99.90;;;;;;4991623;28;20339;-81
2023/10/30 03:33:54;;;;;;;2.30;0.90;;;10.20;99.90;;;;;;4990755;28;20057;-83
2023/10/30 03:36:23;;;;;;;4.15;1.00;;;10.20;99.90;;;;;;4989796;28;20042;-84
2023/10/30 03:38:53;;;;;;;5.55;1.02;;;10.20;99.90;;;;;;4997909;28;20018;-83
2023/10/30 03:41:19;;;;;;;4.43;1.33;;;10.10;99.90;;;;;;4989189;28;20037;-84
2023/10/30 03:43:45;;;;;;;1.85;0.88;;;10.10;99.90;;;;;;4989699;28;20175;-83
2023/10/30 03:46:11;;;;;;;2.70;0.88;;;10.20;99.90;;;;;;4989607;28;20148;-83
2023/10/30 03:48:37;;;;;;;2.90;1.25;;;10.10;99.90;;;;;;4994216;28;20089;-83
2023/10/30 03:51:03;;;;;;;4.22;0.80;;;10.10;99.90;;;;;;4997415;28;20434;-83
2023/10/30 03:53:30;;;;;;;4.82;0.88;;;10.10;99.90;;;;;;4987358;28;20034;-83
2023/10/30 03:55:55;;;;;;;4.40;0.90;;;10.10;99.90;;;;;;4987981;28;20479;-83
2023/10/30 03:58:21;;;;;;;1.80;0.82;;;10.00;99.90;;;;;;4987492;28;20037;-83
2023/10/30 04:00:47;;;;;;;3.78;0.82;;;10.10;99.90;;;;;;4989780;28;20581;-83
2023/10/30 04:03:12;;;;;;;1.75;1.00;;;10.00;99.90;;;;;;4992372;28;20041;-83
2023/10/30 04:05:38;;;;;;;4.07;1.13;;;10.00;99.90;;;;;;4991621;28;20040;-85
2023/10/30 04:08:04;;;;;;;2.10;1.08;;;10.10;99.90;;;;;;4989866;28;20035;-83
2023/10/30 04:10:29;;;;;;;2.35;1.00;;;10.10;99.90;;;;;;4994898;28;20033;-85
2023/10/30 04:12:55;;;;;;;5.10;0.90;;;10.10;99.90;;;;;;4997666;28;20031;-83
2023/10/30 04:15:21;;;;;;;3.35;0.85;;;10.10;99.90;;;;;;4999168;28;20388;-85
2023/10/30 04:17:46;;;;;;;4.43;1.23;;;10.10;99.90;;;;;;4997971;28;20145;-82
2023/10/30 04:20:12;;;;;;;5.78;1.40;;;10.20;99.90;;;;;;4993494;28;20022;-83
2023/10/30 04:22:37;;;;;;;4.97;1.20;;;10.20;99.90;;;;;;4993818;28;20029;-82
2023/10/30 04:25:06;;;;;;;3.92;1.27;;;10.10;99.90;;;;;;4991122;28;20355;-84
2023/10/30 04:27:31;;;;;;;4.15;1.20;;;10.20;99.90;;;;;;4991502;28;20095;-84
2023/10/30 04:29:57;;;;;;;7.60;1.45;;;10.20;99.90;;;;;;4988733;28;20534;-84
2023/10/30 04:32:23;;;;;;;6.60;1.70;;;10.20;99.90;;;;;;4990690;28;20478;-83
2023/10/30 04:34:48;;;;;;;2.47;0.88;;;10.20;99.90;;;;;;4989106;28;20061;-82
2023/10/30 04:37:14;;;;;;;5.13;1.40;;;10.20;99.90;;;;;;4998215;28;20022;-82
2023/10/30 04:39:40;;;;;;;4.35;1.15;;;10.30;99.90;;;;;;4992069;28;20029;-83
2023/10/30 04:42:06;;;;;;;5.03;0.90;;;10.30;99.90;;;;;;4989681;28;20023;-83
2023/10/30 04:44:31;;;;;;;9.38;1.27;;;10.30;99.90;;;;;;4989473;28;20430;-83
2023/10/30 04:46:57;;;;;;;5.95;1.23;;;10.30;99.90;;;;;;4992770;28;20355;-83
2023/10/30 04:49:22;;;;;;;5.60;1.40;;;10.30;99.90;;;;;;4987074;28;20050;-82
2023/10/30 04:51:48;;;;;;;5.13;1.95;;;10.30;99.90;;;;;;4989229;28;20088;-83
2023/10/30 04:54:13;;;;;;;4.32;1.00;;;10.20;99.90;;;;;;4989173;28;20022;-84
2023/10/30 04:56:39;;;;;;;6.90;1.38;;;10.20;99.90;;;;;;4988957;28;20037;-82
2023/10/30 04:59:04;;;;;;;5.47;1.27;;;10.20;99.90;;;;;;4989741;28;20014;-81
2023/10/30 05:01:30;;;;;;;3.95;1.27;;;10.20;99.90;;;;;;4993868;28;20071;-83
2023/10/30 05:03:57;;;;;;;6.47;1.05;;;10.20;99.90;;;;;;4985622;28;20061;-82
2023/10/30 05:06:22;;;;;;;5.93;1.10;;;10.20;99.90;;;;;;4985753;28;20026;-83
2023/10/30 05:08:48;;;;;;;3.55;0.93;;;10.20;99.90;;;;;;4988460;28;20076;-84
2023/10/30 05:11:13;;;;;;;9.93;1.55;;;10.20;99.90;;;;;;4987192;28;20019;-84
2023/10/30 05:13:39;;;;;;;8.93;1.50;;;10.10;99.90;;;;;;4986742;28;20037;-82
2023/10/30 05:16:05;;;;;;;7.25;1.70;;;10.20;99.90;;;;;;4997991;28;20241;-82
2023/10/30 05:18:31;;;;;;;2.25;0.88;;;10.20;99.90;;;;;;5010314;28;20653;-84
2023/10/30 05:20:56;;;;;;;6.32;1.45;;;10.20;99.90;;;;;;4991295;28;20018;-86
2023/10/30 05:23:22;;;;;;;5.28;1.10;;;10.20;99.90;;;;;;4989262;28;20014;-83
2023/10/30 05:25:47;;;;;;;3.53;1.25;;;10.20;99.90;;;;;;4989936;28;20033;-84
2023/10/30 05:28:13;;;;;;;4.25;1.58;;;10.20;99.90;;;;;;4995830;28;20025;-81
2023/10/30 05:30:39;;;;;;;7.03;1.50;;;10.20;99.90;;;;;;4997847;28;20026;-83
2023/10/30 05:33:04;;;;;;;7.47;1.27;;;10.20;99.90;;;;;;4994851;28;20420;-82
2023/10/30 05:35:30;;;;;;;2.47;1.48;;;10.10;99.90;;;;;;4991978;28;20032;-83
2023/10/30 05:37:56;;;;;;;8.80;1.80;;;10.10;99.90;;;;;;4989603;28;20652;-83
2023/10/30 05:40:22;;;;;;;4.93;0.98;;;10.10;99.90;;;;;;5001689;28;20026;-84
2023/10/30 05:42:48;;;;;;;4.50;0.90;;;10.10;99.90;;;;;;4992626;28;20019;-84
2023/10/30 05:45:13;;;;;;;5.88;1.63;;;10.10;99.90;;;;;;4989562;28;20080;-82
2023/10/30 05:47:39;;;;;;;4.32;1.00;;;10.10;99.90;;;;;;4990304;28;20462;-84
2023/10/30 05:50:05;;;;;;;6.22;1.30;;;10.10;99.90;;;;;;4987195;28;20018;-84
2023/10/30 05:52:31;;;;;;;7.00;1.45;;;10.10;99.90;;;;;;4993727;28;20026;-83
2023/10/30 05:54:56;;;;;;;6.40;1.30;;;10.20;99.90;;;;;;4987611;28;20022;-83
2023/10/30 05:57:22;;;;;;;6.82;1.30;;;10.20;99.90;;;;;;4990585;28;20028;-83
2023/10/30 05:59:48;;;;;;;1.48;0.88;;;10.10;99.90;;;;;;4994894;28;20050;-84
2023/10/30 06:02:15;;;;;;;8.30;1.75;;;10.10;99.90;;;;;;4993782;28;20031;-83
2023/10/30 06:04:40;;;;;;;1.98;0.90;;;10.10;99.90;;;;;;4997062;28;20018;-83
2023/10/30 06:07:06;;;;;;;4.68;1.00;;;10.00;99.90;;;;;;4981557;28;20342;-82
2023/10/30 06:09:32;;;;;;;3.67;1.10;;;10.00;99.90;;;;;;4990438;28;20443;-82
2023/10/30 06:11:57;;;;;;;6.53;1.52;;;10.00;99.90;;;;;;4988113;28;20011;-83
2023/10/30 06:14:23;;;;;;;5.88;1.27;;;10.00;99.90;;;;;;4991220;28;20508;-83
2023/10/30 06:16:49;;;;;;;4.47;1.60;;;10.00;99.90;;;;;;4990614;28;20018;-83
2023/10/30 06:19:15;;;;;;;6.88;1.13;;;10.00;99.90;;;;;;4987902;28;20014;-83
2023/10/30 06:21:43;;;;;;;7.68;1.45;;;9.90;99.90;;;;;;4982530;28;20099;-82
2023/10/30 06:24:09;;;;;;;6.93;1.15;;;10.00;99.90;;;;;;4989016;28;20504;-82
2023/10/30 06:26:38;;;;;;;5.85;1.50;;;9.90;99.90;;;;;;4984057;28;20064;-83
2023/10/30 06:29:03;;;;;;;5.10;1.50;;;9.90;99.90;;;;;;4990920;28;20014;-83
2023/10/30 06:31:29;;;;;;;1.90;1.08;;;9.90;99.90;;;;;;4988684;28;20056;-83
2023/10/30 06:33:55;;;;;;;5.60;1.38;;;9.90;99.90;;;;;;4985246;28;20459;-82
2023/10/30 06:36:21;;;;;;;2.10;0.73;;;9.90;99.90;;;;;;4999863;28;20043;-83
2023/10/30 06:38:47;;;;;;;7.78;1.67;;;9.90;99.90;;;;;;4997493;28;20077;-83
2023/10/30 06:41:13;;;;;;;6.78;1.88;;;9.90;99.90;;;;;;4985089;28;20025;-83
2023/10/30 06:43:39;;;;;;;4.93;1.33;;;9.90;99.90;;;;;;4983600;28;20475;-83
2023/10/30 06:46:06;;;;;;;4.63;1.30;;;9.90;99.90;;;;;;4984618;28;20018;-82
2023/10/30 06:48:32;;;;;;;4.57;1.67;;;9.80;99.90;;;;;;4982491;28;20490;-83
2023/10/30 06:50:58;;;;;;;6.53;2.53;;;9.80;99.90;;;;;;4982605;28;20482;-83
2023/10/30 06:53:24;;;;;;;4.57;1.63;;;9.80;99.90;;;;;;4981797;28;20019;-82
2023/10/30 06:55:50;;;;;;;3.38;1.00;;;9.80;99.90;;;;;;4980770;28;20074;-83
2023/10/30 06:58:23;;;;;;;6.18;1.42;;;9.70;99.90;;;;;;4989299;28;20101;-82
2023/10/30 07:00:49;;;;;;;0.90;0.70;;;9.70;99.90;;;;;;4985985;28;20015;-84
2023/10/30 07:03:15;;;;;;;3.58;0.90;;;9.70;99.90;;;;;;4982936;28;20474;-83
2023/10/30 07:05:42;;;;;;;4.70;1.33;;;9.70;99.90;;;;;;4986267;28;20054;-84
2023/10/30 07:08:07;;;;;;;8.82;1.40;;;9.70;99.90;;;;;;4982173;28;20105;-83
2023/10/30 07:10:33;;;;;;;2.60;1.33;;;9.70;99.90;;;;;;4983196;28;20118;-83
2023/10/30 07:12:58;;;;;;;4.47;1.35;;;9.60;99.90;;;;;;4984538;28;20611;-82
2023/10/30 07:15:26;;;;;;;6.65;1.83;;;9.60;99.90;;;;;;4984707;28;20050;-82
2023/10/30 07:17:53;;;;;;;3.90;1.25;;;9.60;99.90;;;;;;4986362;28;20100;-83
2023/10/30 07:20:19;;;;;;;3.47;1.00;;;9.60;99.90;;;;;;4995599;28;20014;-84
2023/10/30 07:22:44;;;;;;;4.68;1.48;;;9.60;99.90;;;;;;4983280;28;20030;-83
2023/10/30 07:25:11;;;;;;;4.40;1.60;;;9.60;99.90;;;;;;4988636;28;20034;-83
2023/10/30 07:27:36;;;;;;;4.78;1.10;;;9.60;99.90;;;;;;4985826;28;20134;-83
2023/10/30 07:30:03;;;;;;;5.50;1.55;;;9.60;99.90;;;;;;4988787;28;20442;-85
2023/10/30 07:32:28;;;;;;;6.47;1.52;;;9.60;99.90;;;;;;4979196;28;20026;-83
2023/10/30 07:34:54;;;;;;;2.15;1.30;;;9.60;99.90;;;;;;4989650;28;20034;-83
2023/10/30 07:37:19;;;;;;;5.90;1.90;;;9.60;99.90;;;;;;4982161;28;20034;-84
2023/10/30 07:39:45;;;;;;;5.22;1.95;;;9.60;99.90;;;;;;4987850;28;20040;-84
2023/10/30 07:42:10;;;;;;;4.32;1.35;;;9.60;99.90;;;;;;4981325;28;20026;-83
2023/10/30 07:44:36;;;;;;;7.13;2.13;;;9.60;99.90;;;;;;4982002;28;20073;-84
2023/10/30 07:47:03;;;;;;;9.23;2.05;;;9.60;99.90;;;;;;4989280;28;20287;-83
2023/10/30 07:49:28;;;;;;;5.75;2.83;;;9.70;99.90;;;;;;4982373;28;20034;-84
2023/10/30 07:51:54;;;;;;;3.83;2.20;;;9.70;99.90;;;;;;4992399;28;20450;-84
2023/10/30 07:54:19;;;;;;;4.45;1.90;;;9.70;99.90;;;;;;4987056;28;20034;-83
2023/10/30 07:56:45;;;;;;;5.15;1.45;;;9.60;99.90;;;;;;4981434;28;20084;-83
2023/10/30 07:59:10;;;;;;;7.03;2.25;;;9.60;99.90;;;;;;4985929;28;20166;-83
2023/10/30 08:01:36;;;;;;;6.40;1.75;;;9.60;99.90;;;;;;4984715;28;20099;-83
2023/10/30 08:04:02;;;;;;;3.65;1.77;;;9.70;99.90;;;;;;4986724;28;20033;-83
2023/10/30 08:06:27;;;;;;;5.15;1.08;;;9.70;99.90;;;;;;4983467;28;20041;-83
2023/10/30 08:08:53;;;;;;;4.55;1.38;;;9.80;99.90;;;;;;4995433;28;20018;-85
2023/10/30 08:11:19;;;;;;;5.68;1.38;;;9.80;99.90;;;;;;4998160;28;20053;-83
2023/10/30 08:13:45;;;;;;;5.72;2.20;;;9.90;99.90;;;;;;4990981;28;20034;-83
2023/10/30 08:16:10;;;;;;;4.55;1.48;;;9.90;99.90;;;;;;4990446;28;20522;-84
2023/10/30 08:18:37;;;;;;;4.75;1.33;;;10.00;99.90;;;;;;4990270;28;20022;-84
2023/10/30 08:21:03;;;;;;;3.97;1.30;;;10.10;99.90;;;;;;4990692;28;20110;-82
2023/10/30 08:23:29;;;;;;;3.92;1.52;;;10.20;99.90;;;;;;4983045;28;20052;-82
2023/10/30 08:25:54;;;;;;;5.63;1.30;;;10.20;99.90;;;;;;4997887;28;20030;-83
2023/10/30 08:28:20;;;;;;;7.88;1.75;;;10.30;99.90;;;;;;4988148;28;20076;-82
2023/10/30 08:30:46;;;;;;;5.63;1.65;;;10.40;99.90;;;;;;4984726;28;20101;-82
2023/10/30 08:33:11;;;;;;;5.53;1.80;;;10.40;99.90;;;;;;4984504;28;20034;-82
2023/10/30 08:35:37;;;;;;;5.18;1.58;;;10.50;99.90;;;;;;4987503;28;20042;-82
2023/10/30 08:38:03;;;;;;;7.28;1.92;;;10.60;99.90;;;;;;4981673;28;20121;-83
2023/10/30 08:40:29;;;;;;;5.97;1.85;;;10.60;99.90;;;;;;4982183;28;20014;-82
2023/10/30 08:42:54;;;;;;;7.10;1.65;;;10.70;99.90;;;;;;4983557;28;20077;-82
2023/10/30 08:45:22;;;;;;;7.88;1.77;;;10.70;99.90;;;;;;4983980;28;20030;-83
2023/10/30 08:47:47;;;;;;;10.18;2.83;;;10.80;99.90;;;;;;4982784;28;20121;-83
2023/10/30 08:50:13;;;;;;;8.13;2.03;;;10.90;99.90;;;;;;4982734;28;20097;-83
2023/10/30 08:52:39;;;;;;;8.32;1.80;;;10.90;99.90;;;;;;4988064;28;20023;-83
2023/10/30 08:55:05;;;;;;;5.18;1.90;;;11.00;99.90;;;;;;4983605;28;20030;-83
2023/10/30 08:57:31;;;;;;;6.85;1.88;;;11.00;99.90;;;;;;4981504;28;20033;-83
2023/10/30 08:59:56;;;;;;;6.90;2.60;;;11.10;99.90;;;;;;4979064;28;20391;-83
2023/10/30 09:02:22;;;;;;;13.20;3.40;;;11.10;99.90;;;;;;4983402;28;20570;-82
2023/10/30 09:04:47;;;;;;;8.35;1.77;;;11.20;99.90;;;;;;4978508;28;20034;-83
2023/10/30 09:07:13;;;;;;;4.97;1.63;;;11.20;99.90;;;;;;4988179;28;20023;-83
2023/10/30 09:09:39;;;;;;;5.57;1.80;;;11.30;99.90;;;;;;4982532;28;20015;-82
2023/10/30 09:12:05;;;;;;;6.65;1.67;;;11.30;99.90;;;;;;4999249;28;20030;-83
2023/10/30 09:14:30;;;;;;;4.63;1.25;;;11.40;99.90;;;;;;5004033;28;20037;-84
2023/10/30 09:16:56;;;;;;;6.43;2.08;;;11.50;99.90;;;;;;4999735;28;20226;-84
2023/10/30 09:19:22;;;;;;;2.38;1.17;;;11.50;99.90;;;;;;4991419;28;20022;-83
2023/10/30 09:21:48;;;;;;;6.50;1.25;;;11.50;99.90;;;;;;4988902;28;20026;-83
2023/10/30 09:24:13;;;;;;;7.30;2.10;;;11.50;99.90;;;;;;4989667;28;20022;-83
2023/10/30 09:26:39;;;;;;;5.60;2.20;;;11.60;99.90;;;;;;4980572;28;20023;-84
2023/10/30 09:29:04;;;;;;;5.90;1.48;;;11.60;99.90;;;;;;4991288;28;20022;-83
2023/10/30 09:31:31;;;;;;;6.65;1.63;;;11.70;99.90;;;;;;4982007;28;20030;-82
2023/10/30 09:33:57;;;;;;;6.57;2.15;;;11.80;99.90;;;;;;4984582;28;20376;-83
2023/10/30 09:36:24;;;;;;;4.70;1.45;;;11.80;99.90;;;;;;4990138;28;20287;-83
2023/10/30 09:38:49;;;;;;;2.35;0.85;;;11.90;99.90;;;;;;4988757;28;20471;-83
2023/10/30 09:41:19;;;;;;;4.00;1.15;;;11.90;99.90;;;;;;4999412;28;20018;-83
2023/10/30 09:43:51;;;;;;;2.70;1.00;;;12.00;99.90;;;;;;4986363;28;20027;-83
2023/10/30 09:46:19;;;;;;;5.05;1.13;;;12.00;99.90;;;;;;4984299;28;20061;-82
2023/10/30 09:48:47;;;;;;;2.50;1.25;;;12.10;99.90;;;;;;4987810;28;20061;-84
2023/10/30 09:51:13;;;;;;;8.25;1.90;;;12.10;99.90;;;;;;4983595;28;20084;-82
2023/10/30 09:53:40;;;;;;;6.55;1.50;;;12.20;99.90;;;;;;4980794;28;20022;-82
2023/10/30 09:56:09;;;;;;;2.22;1.05;;;12.20;99.90;;;;;;4985694;28;20041;-82
2023/10/30 09:58:37;;;;;;;4.75;1.02;;;12.30;99.90;;;;;;4989253;28;20337;-81
2023/10/30 10:01:03;;;;;;;5.53;1.38;;;12.30;99.90;;;;;;4989278;28;20018;-83
2023/10/30 10:03:29;;;;;;;7.72;1.35;;;12.40;99.90;;;;;;4988849;28;20111;-83
2023/10/30 10:05:59;;;;;;;3.85;1.55;;;12.40;99.90;;;;;;4984500;28;20041;-83
2023/10/30 10:08:26;;;;;;;8.10;1.58;;;12.40;99.90;;;;;;4986220;28;20762;-84
2023/10/30 10:11:01;;;;;;;7.43;1.25;;;12.50;99.90;;;;;;4983504;28;20023;-83
2023/10/30 10:13:32;;;;;;;3.53;1.05;;;12.50;99.90;;;;;;4983159;28;20030;-81
2023/10/30 10:15:59;;;;;;;6.88;1.70;;;12.60;99.90;;;;;;4989454;28;20041;-83
2023/10/30 10:18:30;;;;;;;3.42;0.90;;;12.70;99.90;;;;;;4991589;28;20504;-83
2023/10/30 10:21:00;;;;;;;9.73;2.05;;;12.60;99.90;;;;;;4983314;28;20026;-82
2023/10/30 10:23:36;;;;;;;5.88;1.15;;;12.70;99.90;;;;;;4988457;28;20029;-82
2023/10/30 10:26:15;;;;;;;7.18;1.42;;;12.70;99.90;;;;;;4986409;28;20034;-83
2023/10/30 10:28:48;;;;;;;3.70;1.05;;;12.70;99.90;;;;;;4980996;28;20144;-82
2023/10/30 10:31:14;;;;;;;4.30;1.02;;;12.70;99.90;;;;;;4983055;28;20335;-83
2023/10/30 10:33:40;;;;;;;2.25;0.90;;;12.70;99.90;;;;;;4985044;28;20037;-83
2023/10/30 10:36:07;;;;;;;2.92;1.08;;;12.70;99.90;;;;;;4982615;28;20110;-82
2023/10/30 10:38:33;;;;;;;3.95;1.17;;;12.70;99.90;;;;;;4982597;28;20116;-83
2023/10/30 10:40:59;;;;;;;5.40;1.15;;;12.70;99.90;;;;;;4982514;28;20215;-83
2023/10/30 10:43:29;;;;;;;4.25;1.33;;;12.70;99.90;;;;;;4981903;28;20025;-82
2023/10/30 10:45:56;;;;;;;6.25;1.52;;;12.70;99.90;;;;;;4982791;28;20027;-82
2023/10/30 10:48:27;;;;;;;5.68;1.27;;;12.70;99.90;;;;;;4986297;28;20036;-82
2023/10/30 10:51:00;;;;;;;5.22;1.30;;;12.70;99.90;;;;;;4981712;28;20471;-83
2023/10/30 10:53:27;;;;;;;4.45;1.20;;;12.70;99.90;;;;;;4981819;28;20014;-83
2023/10/30 10:55:59;;;;;;;6.47;1.48;;;12.70;99.90;;;;;;4982857;28;20030;-83
2023/10/30 10:58:38;;;;;;;7.95;2.00;;;12.70;99.90;;;;;;4982913;28;20022;-85
2023/10/30 11:01:06;;;;;;;6.20;1.27;;;12.70;99.90;;;;;;4979394;28;20340;-84
2023/10/30 11:03:32;;;;;;;5.10;1.50;;;12.70;99.90;;;;;;4995037;28;20024;-84
2023/10/30 11:05:58;;;;;;;5.40;1.00;;;12.80;99.90;;;;;;4997575;28;20038;-83
2023/10/30 11:08:53;;;;;;;6.05;1.25;;;12.80;99.90;;;;;;4995022;28;20034;-84
2023/10/30 11:11:32;;;;;;;5.57;1.27;;;12.90;99.90;;;;;;4988773;28;20038;-84
2023/10/30 11:14:16;;;;;;;5.18;1.58;;;13.00;99.90;;;;;;4996042;28;20038;-84
2023/10/30 11:16:50;;;;;;;5.68;1.55;;;13.00;99.90;;;;;;4997418;28;20532;-84
2023/10/30 11:19:22;;;;;;;2.95;1.17;;;13.00;99.90;;;;;;4994410;28;20049;-84
2023/10/30 11:21:49;;;;;;;5.65;1.38;;;13.00;99.90;;;;;;4991046;28;20023;-83
2023/10/30 11:24:35;;;;;;;3.65;1.30;;;13.00;99.90;;;;;;4999049;28;20064;-83
2023/10/30 11:27:00;;;;;;;;;;;13.00;99.90;;;;;;4992860;28;20027;-82
2023/10/30 11:29:59;;;;;;;6.80;1.70;;;13.00;99.90;;;;;;4997928;28;19968;-86
2023/10/30 11:32:25;;;;;;;5.53;2.03;;;13.00;99.90;;;;;;4991580;28;20022;-82
2023/10/30 11:34:51;;;;;;;9.18;1.50;;;13.00;99.90;;;;;;4989990;28;20038;-84
2023/10/30 11:37:21;;;;;;;4.20;1.60;;;13.10;99.90;;;;;;4990704;28;20050;-82
2023/10/30 11:39:49;;;;;;;3.88;1.45;;;13.10;99.90;;;;;;4988718;28;20025;-83
2023/10/30 11:42:24;;;;;;;8.20;1.95;;;13.10;99.90;;;;;;4991124;28;20027;-83
2023/10/30 11:44:51;;;;;;;5.18;1.40;;;13.10;99.90;;;;;;4994117;28;20498;-83
2023/10/30 11:47:23;;;;;;;5.13;1.40;;;13.10;99.90;;;;;;4993135;28;20421;-84
2023/10/30 11:49:50;;;;;;;4.28;1.75;;;13.10;99.90;;;;;;4994085;28;20026;-83
2023/10/30 11:52:19;;;;;;;5.03;1.48;;;13.20;99.90;;;;;;4993207;28;20061;-83
2023/10/30 11:54:48;;;;;;;4.28;1.92;;;13.10;99.90;;;;;;4990384;28;20022;-83
2023/10/30 11:57:14;;;;;;;4.78;1.35;;;13.10;99.90;;;;;;4989218;28;20026;-83
2023/10/30 11:59:40;;;;;;;4.68;1.52;;;13.20;99.90;;;;;;4988879;28;20375;-83
2023/10/30 12:02:06;;;;;;;6.75;1.55;;;13.20;99.90;;;;;;4991839;28;20015;-84
2023/10/30 12:04:34;;;;;;;6.22;1.90;;;13.20;99.90;;;;;;4988471;28;20526;-83
2023/10/30 12:07:00;;;;;;;4.93;1.35;;;13.20;99.90;;;;;;4996384;28;20090;-83
2023/10/30 12:09:26;;;;;;;5.88;1.60;;;13.20;99.90;;;;;;4992602;28;20028;-83
2023/10/30 12:11:52;;;;;;;6.18;1.63;;;13.20;99.90;;;;;;4991854;28;20022;-83
2023/10/30 12:14:21;;;;;;;8.38;2.30;;;13.20;99.90;;;;;;4986956;28;20038;-83
2023/10/30 12:16:48;;;;;;;4.15;1.50;;;13.10;99.90;;;;;;4985460;28;20634;-83
2023/10/30 12:19:20;;;;;;;2.95;1.67;;;13.20;99.90;;;;;;4991271;28;20105;-83
2023/10/30 12:21:47;;;;;;;3.10;1.38;;;13.10;99.90;;;;;;4987988;28;20053;-84
2023/10/30 12:24:18;;;;;;;4.18;1.33;;;13.10;99.90;;;;;;4994806;28;20053;-85
2023/10/30 12:26:46;;;;;;;7.53;1.75;;;13.20;99.90;;;;;;5016079;28;20022;-85
2023/10/30 12:29:19;;;;;;;6.20;1.60;;;13.20;99.90;;;;;;5004497;28;20030;-84
2023/10/30 12:31:49;;;;;;;5.53;1.75;;;13.20;99.90;;;;;;4994801;28;20027;-82
2023/10/30 12:34:16;;;;;;;7.28;1.90;;;13.20;99.90;;;;;;4995411;28;20038;-84
2023/10/30 12:36:42;;;;;;;5.07;1.50;;;13.20;99.90;;;;;;4992615;28;20030;-85
2023/10/30 12:39:34;;;;;;;6.35;1.60;;;13.20;99.90;;;;;;4994926;28;20461;-84
2023/10/30 12:41:59;;;;;;;6.30;1.98;;;13.20;99.90;;;;;;4983544;28;20034;-84
2023/10/30 12:44:26;;;;;;;6.70;1.85;;;13.30;99.90;;;;;;4996206;28;20367;-85
2023/10/30 12:46:51;;;;;;;3.70;1.10;;;13.30;99.90;;;;;;4988707;28;20073;-84